sensor_id;sensor_type;location;lat;lon;timestamp;P1;durP1;ratioP1;P2;durP2;ratioP2
17524;SDS011;40431;52.198;9.902;2022-12-18T00:01:40;15.87;;;14.23;;
17524;SDS011;40431;52.198;9.902;2022-12-18T00:04:16;13.47;;;12.37;;
17524;SDS011;40431;52.198;9.902;2022-12-18T00:06:50;12.93;;;11.70;;
17524;SDS011;40431;52.198;9.902;2022-12-18T00:09:28;12.13;;;11.13;;
17524;SDS011;40431;52.198;9.902;2022-12-18T00:11:59;12.57;;;11.37;;
17524;SDS011;40431;52.198;9.902;2022-12-18T00:14:27;14.13;;;12.87;;
17524;SDS011;40431;52.198;9.902;2022-12-18T00:16:55;12.83;;;11.67;;
17524;SDS011;40431;52.198;9.902;2022-12-18T00:19:27;12.87;;;11.77;;
17524;SDS011;40431;52.198;9.902;2022-12-18T00:21:55;13.00;;;11.17;;
17524;SDS011;40431;52.198;9.902;2022-12-18T00:24:24;11.43;;;10.53;;
17524;SDS011;40431;52.198;9.902;2022-12-18T00:26:52;12.53;;;11.43;;
17524;SDS011;40431;52.198;9.902;2022-12-18T00:29:19;13.23;;;12.17;;
17524;SDS011;40431;52.198;9.902;2022-12-18T00:31:47;11.47;;;10.47;;
17524;SDS011;40431;52.198;9.902;2022-12-18T00:34:15;13.43;;;12.43;;
17524;SDS011;40431;52.198;9.902;2022-12-18T00:36:43;11.57;;;10.47;;
17524;SDS011;40431;52.198;9.902;2022-12-18T00:39:16;16.20;;;11.83;;
17524;SDS011;40431;52.198;9.902;2022-12-18T00:41:44;11.83;;;10.83;;
17524;SDS011;40431;52.198;9.902;2022-12-18T00:44:29;12.97;;;11.87;;
17524;SDS011;40431;52.198;9.902;2022-12-18T00:46:56;13.20;;;11.67;;
17524;SDS011;40431;52.198;9.902;2022-12-18T00:49:23;14.23;;;12.07;;
17524;SDS011;40431;52.198;9.902;2022-12-18T00:51:52;12.07;;;11.07;;
17524;SDS011;40431;52.198;9.902;2022-12-18T00:54:21;13.63;;;12.27;;
17524;SDS011;40431;52.198;9.902;2022-12-18T00:56:49;13.57;;;12.30;;
17524;SDS011;40431;52.198;9.902;2022-12-18T00:59:17;13.17;;;11.97;;
17524;SDS011;40431;52.198;9.902;2022-12-18T01:01:45;13.80;;;12.77;;
17524;SDS011;40431;52.198;9.902;2022-12-18T01:04:14;11.87;;;10.97;;
17524;SDS011;40431;52.198;9.902;2022-12-18T01:06:42;12.30;;;11.20;;
17524;SDS011;40431;52.198;9.902;2022-12-18T01:09:14;12.60;;;11.60;;
17524;SDS011;40431;52.198;9.902;2022-12-18T01:11:41;11.20;;;10.23;;
17524;SDS011;40431;52.198;9.902;2022-12-18T01:14:12;12.87;;;11.87;;
17524;SDS011;40431;52.198;9.902;2022-12-18T01:16:40;13.77;;;12.43;;
17524;SDS011;40431;52.198;9.902;2022-12-18T01:19:08;13.97;;;12.83;;
17524;SDS011;40431;52.198;9.902;2022-12-18T01:21:36;12.90;;;11.70;;
17524;SDS011;40431;52.198;9.902;2022-12-18T01:24:04;14.00;;;12.90;;
17524;SDS011;40431;52.198;9.902;2022-12-18T01:26:36;11.83;;;10.93;;
17524;SDS011;40431;52.198;9.902;2022-12-18T01:29:04;12.13;;;10.93;;
17524;SDS011;40431;52.198;9.902;2022-12-18T01:31:33;12.90;;;11.70;;
17524;SDS011;40431;52.198;9.902;2022-12-18T01:34:01;13.07;;;11.97;;
17524;SDS011;40431;52.198;9.902;2022-12-18T01:36:31;13.07;;;12.07;;
17524;SDS011;40431;52.198;9.902;2022-12-18T01:39:00;13.47;;;12.13;;
17524;SDS011;40431;52.198;9.902;2022-12-18T01:41:29;13.47;;;12.37;;
17524;SDS011;40431;52.198;9.902;2022-12-18T01:54:55;13.70;;;10.83;;
17524;SDS011;40431;52.198;9.902;2022-12-18T01:57:28;12.37;;;11.13;;
17524;SDS011;40431;52.198;9.902;2022-12-18T02:00:00;13.40;;;12.20;;
17524;SDS011;40431;52.198;9.902;2022-12-18T02:02:34;11.93;;;10.93;;
17524;SDS011;40431;52.198;9.902;2022-12-18T02:05:02;11.80;;;10.80;;
17524;SDS011;40431;52.198;9.902;2022-12-18T02:07:42;13.10;;;12.00;;
17524;SDS011;40431;52.198;9.902;2022-12-18T02:10:17;14.10;;;12.70;;
17524;SDS011;40431;52.198;9.902;2022-12-18T02:12:52;13.30;;;12.00;;
17524;SDS011;40431;52.198;9.902;2022-12-18T02:15:36;12.80;;;11.60;;
17524;SDS011;40431;52.198;9.902;2022-12-18T02:18:35;10.80;;;10.00;;
17524;SDS011;40431;52.198;9.902;2022-12-18T02:21:12;12.50;;;11.37;;
17524;SDS011;40431;52.198;9.902;2022-12-18T02:23:50;12.33;;;11.33;;
17524;SDS011;40431;52.198;9.902;2022-12-18T02:26:27;14.73;;;12.10;;
17524;SDS011;40431;52.198;9.902;2022-12-18T02:29:05;11.50;;;10.40;;
17524;SDS011;40431;52.198;9.902;2022-12-18T02:31:50;11.43;;;10.53;;
17524;SDS011;40431;52.198;9.902;2022-12-18T02:34:24;11.80;;;10.80;;
17524;SDS011;40431;52.198;9.902;2022-12-18T02:37:00;12.20;;;11.10;;
17524;SDS011;40431;52.198;9.902;2022-12-18T02:39:33;11.43;;;10.53;;
17524;SDS011;40431;52.198;9.902;2022-12-18T02:42:15;12.30;;;11.37;;
17524;SDS011;40431;52.198;9.902;2022-12-18T02:44:49;11.30;;;10.37;;
17524;SDS011;40431;52.198;9.902;2022-12-18T02:47:35;11.13;;;10.23;;
17524;SDS011;40431;52.198;9.902;2022-12-18T02:50:34;11.57;;;10.40;;
17524;SDS011;40431;52.198;9.902;2022-12-18T02:53:08;11.37;;;10.33;;
17524;SDS011;40431;52.198;9.902;2022-12-18T02:55:48;12.20;;;11.10;;
17524;SDS011;40431;52.198;9.902;2022-12-18T02:58:29;11.93;;;10.90;;
17524;SDS011;40431;52.198;9.902;2022-12-18T03:01:03;13.40;;;10.80;;
17524;SDS011;40431;52.198;9.902;2022-12-18T03:03:38;11.10;;;10.13;;
17524;SDS011;40431;52.198;9.902;2022-12-18T03:06:10;10.50;;;9.60;;
17524;SDS011;40431;52.198;9.902;2022-12-18T03:08:42;11.77;;;10.80;;
17524;SDS011;40431;52.198;9.902;2022-12-18T03:11:13;11.53;;;10.43;;
17524;SDS011;40431;52.198;9.902;2022-12-18T03:14:03;11.70;;;10.37;;
17524;SDS011;40431;52.198;9.902;2022-12-18T03:16:32;10.70;;;9.80;;
17524;SDS011;40431;52.198;9.902;2022-12-18T03:19:02;10.60;;;9.80;;
17524;SDS011;40431;52.198;9.902;2022-12-18T03:21:33;11.57;;;9.73;;
17524;SDS011;40431;52.198;9.902;2022-12-18T03:24:14;10.70;;;9.60;;
17524;SDS011;40431;52.198;9.902;2022-12-18T03:26:43;11.97;;;9.67;;
17524;SDS011;40431;52.198;9.902;2022-12-18T03:29:16;11.40;;;10.30;;
17524;SDS011;40431;52.198;9.902;2022-12-18T03:31:47;11.03;;;10.03;;
17524;SDS011;40431;52.198;9.902;2022-12-18T03:34:17;11.20;;;10.13;;
17524;SDS011;40431;52.198;9.902;2022-12-18T03:36:48;12.00;;;10.90;;
17524;SDS011;40431;52.198;9.902;2022-12-18T03:39:15;16.60;;;11.10;;
17524;SDS011;40431;52.198;9.902;2022-12-18T03:41:43;11.53;;;10.53;;
17524;SDS011;40431;52.198;9.902;2022-12-18T03:44:15;11.10;;;10.13;;
17524;SDS011;40431;52.198;9.902;2022-12-18T03:46:47;10.80;;;9.90;;
17524;SDS011;40431;52.198;9.902;2022-12-18T03:49:23;12.33;;;10.27;;
17524;SDS011;40431;52.198;9.902;2022-12-18T03:51:54;10.30;;;9.50;;
17524;SDS011;40431;52.198;9.902;2022-12-18T03:54:26;10.00;;;9.20;;
17524;SDS011;40431;52.198;9.902;2022-12-18T03:56:57;10.17;;;9.37;;
17524;SDS011;40431;52.198;9.902;2022-12-18T03:59:28;11.23;;;10.33;;
17524;SDS011;40431;52.198;9.902;2022-12-18T04:01:57;10.67;;;9.67;;
17524;SDS011;40431;52.198;9.902;2022-12-18T04:04:27;10.60;;;9.60;;
17524;SDS011;40431;52.198;9.902;2022-12-18T04:06:55;11.33;;;10.33;;
17524;SDS011;40431;52.198;9.902;2022-12-18T04:09:23;12.70;;;9.77;;
17524;SDS011;40431;52.198;9.902;2022-12-18T04:11:51;10.33;;;9.53;;
17524;SDS011;40431;52.198;9.902;2022-12-18T04:14:19;10.37;;;9.47;;
17524;SDS011;40431;52.198;9.902;2022-12-18T04:16:49;10.50;;;9.43;;
17524;SDS011;40431;52.198;9.902;2022-12-18T04:19:18;9.87;;;8.97;;
17524;SDS011;40431;52.198;9.902;2022-12-18T04:21:49;9.97;;;9.07;;
17524;SDS011;40431;52.198;9.902;2022-12-18T04:24:18;9.67;;;8.77;;
17524;SDS011;40431;52.198;9.902;2022-12-18T04:26:46;10.57;;;9.63;;
17524;SDS011;40431;52.198;9.902;2022-12-18T04:29:15;11.10;;;10.20;;
17524;SDS011;40431;52.198;9.902;2022-12-18T04:31:46;10.60;;;9.50;;
17524;SDS011;40431;52.198;9.902;2022-12-18T04:34:16;14.17;;;9.70;;
17524;SDS011;40431;52.198;9.902;2022-12-18T04:36:44;10.60;;;9.70;;
17524;SDS011;40431;52.198;9.902;2022-12-18T04:39:20;10.80;;;9.80;;
17524;SDS011;40431;52.198;9.902;2022-12-18T04:41:49;11.13;;;10.23;;
17524;SDS011;40431;52.198;9.902;2022-12-18T04:44:16;10.67;;;9.73;;
17524;SDS011;40431;52.198;9.902;2022-12-18T04:46:43;10.43;;;9.63;;
17524;SDS011;40431;52.198;9.902;2022-12-18T04:49:11;11.23;;;10.33;;
17524;SDS011;40431;52.198;9.902;2022-12-18T04:51:38;11.10;;;10.10;;
17524;SDS011;40431;52.198;9.902;2022-12-18T04:54:05;10.57;;;9.77;;
17524;SDS011;40431;52.198;9.902;2022-12-18T04:56:31;10.07;;;9.17;;
17524;SDS011;40431;52.198;9.902;2022-12-18T04:58:58;10.23;;;9.43;;
17524;SDS011;40431;52.198;9.902;2022-12-18T05:01:25;10.00;;;9.30;;
17524;SDS011;40431;52.198;9.902;2022-12-18T05:03:51;8.40;;;7.67;;
17524;SDS011;40431;52.198;9.902;2022-12-18T05:06:19;9.57;;;8.77;;
17524;SDS011;40431;52.198;9.902;2022-12-18T05:08:46;9.53;;;8.57;;
17524;SDS011;40431;52.198;9.902;2022-12-18T05:11:13;9.73;;;8.80;;
17524;SDS011;40431;52.198;9.902;2022-12-18T05:13:41;9.53;;;8.63;;
17524;SDS011;40431;52.198;9.902;2022-12-18T05:16:08;8.83;;;8.03;;
17524;SDS011;40431;52.198;9.902;2022-12-18T05:18:34;8.60;;;7.90;;
17524;SDS011;40431;52.198;9.902;2022-12-18T05:21:02;9.43;;;8.73;;
17524;SDS011;40431;52.198;9.902;2022-12-18T05:23:30;9.33;;;8.63;;
17524;SDS011;40431;52.198;9.902;2022-12-18T05:25:57;8.63;;;7.70;;
17524;SDS011;40431;52.198;9.902;2022-12-18T05:28:25;9.70;;;8.80;;
17524;SDS011;40431;52.198;9.902;2022-12-18T05:30:53;9.53;;;8.83;;
17524;SDS011;40431;52.198;9.902;2022-12-18T05:33:22;9.27;;;8.60;;
17524;SDS011;40431;52.198;9.902;2022-12-18T05:35:50;9.10;;;7.83;;
17524;SDS011;40431;52.198;9.902;2022-12-18T05:38:17;8.67;;;8.07;;
17524;SDS011;40431;52.198;9.902;2022-12-18T05:40:46;8.47;;;7.77;;
17524;SDS011;40431;52.198;9.902;2022-12-18T05:43:13;8.40;;;7.60;;
17524;SDS011;40431;52.198;9.902;2022-12-18T05:45:40;8.60;;;7.97;;
17524;SDS011;40431;52.198;9.902;2022-12-18T05:48:07;8.47;;;7.77;;
17524;SDS011;40431;52.198;9.902;2022-12-18T05:50:35;7.77;;;7.07;;
17524;SDS011;40431;52.198;9.902;2022-12-18T05:53:01;8.87;;;7.97;;
17524;SDS011;40431;52.198;9.902;2022-12-18T05:55:28;8.93;;;7.27;;
17524;SDS011;40431;52.198;9.902;2022-12-18T05:57:59;8.70;;;7.77;;
17524;SDS011;40431;52.198;9.902;2022-12-18T06:00:26;7.73;;;7.03;;
17524;SDS011;40431;52.198;9.902;2022-12-18T06:02:53;7.87;;;6.67;;
17524;SDS011;40431;52.198;9.902;2022-12-18T06:05:19;8.33;;;7.63;;
17524;SDS011;40431;52.198;9.902;2022-12-18T06:07:46;9.37;;;8.57;;
17524;SDS011;40431;52.198;9.902;2022-12-18T06:10:13;9.13;;;8.47;;
17524;SDS011;40431;52.198;9.902;2022-12-18T06:12:39;8.80;;;8.10;;
17524;SDS011;40431;52.198;9.902;2022-12-18T06:15:08;8.33;;;7.80;;
17524;SDS011;40431;52.198;9.902;2022-12-18T06:17:35;9.13;;;7.83;;
17524;SDS011;40431;52.198;9.902;2022-12-18T06:20:01;8.23;;;7.63;;
17524;SDS011;40431;52.198;9.902;2022-12-18T06:22:30;9.03;;;8.33;;
17524;SDS011;40431;52.198;9.902;2022-12-18T06:24:56;8.03;;;7.43;;
17524;SDS011;40431;52.198;9.902;2022-12-18T06:27:24;9.17;;;8.37;;
17524;SDS011;40431;52.198;9.902;2022-12-18T06:29:51;7.73;;;7.03;;
17524;SDS011;40431;52.198;9.902;2022-12-18T06:32:19;7.43;;;6.83;;
17524;SDS011;40431;52.198;9.902;2022-12-18T06:34:45;8.03;;;7.43;;
17524;SDS011;40431;52.198;9.902;2022-12-18T06:37:12;9.40;;;8.70;;
17524;SDS011;40431;52.198;9.902;2022-12-18T06:39:38;9.27;;;8.60;;
17524;SDS011;40431;52.198;9.902;2022-12-18T06:42:05;9.27;;;8.60;;
17524;SDS011;40431;52.198;9.902;2022-12-18T06:44:31;8.50;;;7.87;;
17524;SDS011;40431;52.198;9.902;2022-12-18T06:46:58;9.47;;;8.67;;
17524;SDS011;40431;52.198;9.902;2022-12-18T06:49:26;8.27;;;7.57;;
17524;SDS011;40431;52.198;9.902;2022-12-18T06:51:52;8.53;;;7.90;;
17524;SDS011;40431;52.198;9.902;2022-12-18T06:54:19;8.97;;;8.27;;
17524;SDS011;40431;52.198;9.902;2022-12-18T06:56:46;9.40;;;8.57;;
17524;SDS011;40431;52.198;9.902;2022-12-18T06:59:12;8.13;;;7.43;;
17524;SDS011;40431;52.198;9.902;2022-12-18T07:01:39;8.73;;;8.03;;
17524;SDS011;40431;52.198;9.902;2022-12-18T07:04:06;8.97;;;8.17;;
17524;SDS011;40431;52.198;9.902;2022-12-18T07:06:34;11.03;;;8.67;;
17524;SDS011;40431;52.198;9.902;2022-12-18T07:09:00;8.67;;;8.03;;
17524;SDS011;40431;52.198;9.902;2022-12-18T07:11:27;9.30;;;8.30;;
17524;SDS011;40431;52.198;9.902;2022-12-18T07:13:53;9.17;;;8.37;;
17524;SDS011;40431;52.198;9.902;2022-12-18T07:16:20;9.00;;;8.30;;
17524;SDS011;40431;52.198;9.902;2022-12-18T07:18:47;8.77;;;7.87;;
17524;SDS011;40431;52.198;9.902;2022-12-18T07:21:14;8.07;;;7.47;;
17524;SDS011;40431;52.198;9.902;2022-12-18T07:23:45;8.33;;;7.67;;
17524;SDS011;40431;52.198;9.902;2022-12-18T07:26:13;7.53;;;6.93;;
17524;SDS011;40431;52.198;9.902;2022-12-18T07:28:41;9.43;;;7.53;;
17524;SDS011;40431;52.198;9.902;2022-12-18T07:31:09;8.87;;;8.07;;
17524;SDS011;40431;52.198;9.902;2022-12-18T07:33:38;8.90;;;8.20;;
17524;SDS011;40431;52.198;9.902;2022-12-18T07:36:05;9.47;;;8.77;;
17524;SDS011;40431;52.198;9.902;2022-12-18T07:38:33;9.30;;;8.60;;
17524;SDS011;40431;52.198;9.902;2022-12-18T07:41:02;8.43;;;7.80;;
17524;SDS011;40431;52.198;9.902;2022-12-18T07:43:30;8.20;;;7.60;;
17524;SDS011;40431;52.198;9.902;2022-12-18T07:45:57;7.63;;;6.90;;
17524;SDS011;40431;52.198;9.902;2022-12-18T07:48:23;7.40;;;6.80;;
17524;SDS011;40431;52.198;9.902;2022-12-18T07:50:50;9.23;;;8.53;;
17524;SDS011;40431;52.198;9.902;2022-12-18T07:53:16;8.10;;;7.50;;
17524;SDS011;40431;52.198;9.902;2022-12-18T07:55:43;8.10;;;7.50;;
17524;SDS011;40431;52.198;9.902;2022-12-18T07:58:11;8.33;;;7.63;;
17524;SDS011;40431;52.198;9.902;2022-12-18T08:00:37;8.77;;;7.90;;
17524;SDS011;40431;52.198;9.902;2022-12-18T08:03:04;8.53;;;7.83;;
17524;SDS011;40431;52.198;9.902;2022-12-18T08:05:30;9.80;;;8.80;;
17524;SDS011;40431;52.198;9.902;2022-12-18T08:07:57;8.93;;;8.13;;
17524;SDS011;40431;52.198;9.902;2022-12-18T08:10:24;9.80;;;9.00;;
17524;SDS011;40431;52.198;9.902;2022-12-18T08:12:51;10.47;;;9.67;;
17524;SDS011;40431;52.198;9.902;2022-12-18T08:15:19;19.80;;;16.93;;
17524;SDS011;40431;52.198;9.902;2022-12-18T08:17:45;18.73;;;16.87;;
17524;SDS011;40431;52.198;9.902;2022-12-18T08:20:12;9.87;;;8.93;;
17524;SDS011;40431;52.198;9.902;2022-12-18T08:22:40;9.93;;;9.20;;
17524;SDS011;40431;52.198;9.902;2022-12-18T08:25:07;9.57;;;8.77;;
17524;SDS011;40431;52.198;9.902;2022-12-18T08:27:34;9.47;;;8.70;;
17524;SDS011;40431;52.198;9.902;2022-12-18T08:30:01;8.67;;;8.00;;
17524;SDS011;40431;52.198;9.902;2022-12-18T08:32:29;9.93;;;9.07;;
17524;SDS011;40431;52.198;9.902;2022-12-18T08:34:56;8.17;;;7.53;;
17524;SDS011;40431;52.198;9.902;2022-12-18T08:37:23;8.00;;;7.40;;
17524;SDS011;40431;52.198;9.902;2022-12-18T08:39:49;8.67;;;7.87;;
17524;SDS011;40431;52.198;9.902;2022-12-18T08:42:16;7.50;;;6.87;;
17524;SDS011;40431;52.198;9.902;2022-12-18T08:45:00;8.17;;;7.47;;
17524;SDS011;40431;52.198;9.902;2022-12-18T08:47:26;7.53;;;7.03;;
17524;SDS011;40431;52.198;9.902;2022-12-18T08:49:54;7.60;;;7.00;;
17524;SDS011;40431;52.198;9.902;2022-12-18T08:52:21;9.47;;;7.57;;
17524;SDS011;40431;52.198;9.902;2022-12-18T08:54:47;7.53;;;7.03;;
17524;SDS011;40431;52.198;9.902;2022-12-18T08:57:14;7.17;;;6.57;;
17524;SDS011;40431;52.198;9.902;2022-12-18T08:59:41;7.43;;;6.93;;
17524;SDS011;40431;52.198;9.902;2022-12-18T09:02:08;6.50;;;6.10;;
17524;SDS011;40431;52.198;9.902;2022-12-18T09:04:37;6.80;;;6.20;;
17524;SDS011;40431;52.198;9.902;2022-12-18T09:07:04;6.87;;;6.37;;
17524;SDS011;40431;52.198;9.902;2022-12-18T09:09:31;7.53;;;6.90;;
17524;SDS011;40431;52.198;9.902;2022-12-18T09:11:58;6.30;;;5.67;;
17524;SDS011;40431;52.198;9.902;2022-12-18T09:14:24;6.30;;;5.80;;
17524;SDS011;40431;52.198;9.902;2022-12-18T09:16:51;5.70;;;5.23;;
17524;SDS011;40431;52.198;9.902;2022-12-18T09:19:17;7.57;;;7.07;;
17524;SDS011;40431;52.198;9.902;2022-12-18T09:21:45;5.77;;;5.30;;
17524;SDS011;40431;52.198;9.902;2022-12-18T09:24:12;5.63;;;4.87;;
17524;SDS011;40431;52.198;9.902;2022-12-18T09:26:40;5.60;;;5.20;;
17524;SDS011;40431;52.198;9.902;2022-12-18T09:29:06;5.57;;;5.27;;
17524;SDS011;40431;52.198;9.902;2022-12-18T09:31:33;6.50;;;5.97;;
17524;SDS011;40431;52.198;9.902;2022-12-18T09:34:01;6.43;;;5.97;;
17524;SDS011;40431;52.198;9.902;2022-12-18T09:36:27;6.23;;;5.73;;
17524;SDS011;40431;52.198;9.902;2022-12-18T09:38:55;7.27;;;6.77;;
17524;SDS011;40431;52.198;9.902;2022-12-18T09:41:28;7.00;;;6.50;;
17524;SDS011;40431;52.198;9.902;2022-12-18T09:44:05;7.13;;;6.63;;
17524;SDS011;40431;52.198;9.902;2022-12-18T09:46:41;6.57;;;6.17;;
17524;SDS011;40431;52.198;9.902;2022-12-18T09:49:12;7.57;;;6.90;;
17524;SDS011;40431;52.198;9.902;2022-12-18T09:51:43;8.70;;;7.97;;
17524;SDS011;40431;52.198;9.902;2022-12-18T09:54:14;7.20;;;6.60;;
17524;SDS011;40431;52.198;9.902;2022-12-18T09:56:45;6.00;;;5.60;;
17524;SDS011;40431;52.198;9.902;2022-12-18T09:59:15;6.03;;;5.33;;
17524;SDS011;40431;52.198;9.902;2022-12-18T10:01:47;4.93;;;4.63;;
17524;SDS011;40431;52.198;9.902;2022-12-18T10:04:13;5.27;;;4.87;;
17524;SDS011;40431;52.198;9.902;2022-12-18T10:06:42;6.07;;;5.67;;
17524;SDS011;40431;52.198;9.902;2022-12-18T10:09:20;5.73;;;5.13;;
17524;SDS011;40431;52.198;9.902;2022-12-18T10:11:53;5.50;;;5.20;;
17524;SDS011;40431;52.198;9.902;2022-12-18T10:14:30;4.80;;;4.40;;
17524;SDS011;40431;52.198;9.902;2022-12-18T10:17:03;5.67;;;5.27;;
17524;SDS011;40431;52.198;9.902;2022-12-18T10:19:40;4.97;;;4.57;;
17524;SDS011;40431;52.198;9.902;2022-12-18T10:22:17;4.43;;;3.97;;
17524;SDS011;40431;52.198;9.902;2022-12-18T10:25:01;4.53;;;4.23;;
17524;SDS011;40431;52.198;9.902;2022-12-18T10:27:33;4.10;;;3.90;;
17524;SDS011;40431;52.198;9.902;2022-12-18T10:29:59;4.10;;;3.80;;
17524;SDS011;40431;52.198;9.902;2022-12-18T10:32:30;4.13;;;3.90;;
17524;SDS011;40431;52.198;9.902;2022-12-18T10:34:57;4.60;;;4.40;;
17524;SDS011;40431;52.198;9.902;2022-12-18T10:37:24;4.63;;;4.33;;
17524;SDS011;40431;52.198;9.902;2022-12-18T10:40:11;3.87;;;3.63;;
17524;SDS011;40431;52.198;9.902;2022-12-18T10:42:40;4.10;;;3.80;;
17524;SDS011;40431;52.198;9.902;2022-12-18T10:45:09;4.43;;;4.13;;
17524;SDS011;40431;52.198;9.902;2022-12-18T10:47:41;3.90;;;3.50;;
17524;SDS011;40431;52.198;9.902;2022-12-18T10:50:16;5.43;;;4.97;;
17524;SDS011;40431;52.198;9.902;2022-12-18T10:52:52;7.20;;;6.50;;
17524;SDS011;40431;52.198;9.902;2022-12-18T10:55:22;7.23;;;6.60;;
17524;SDS011;40431;52.198;9.902;2022-12-18T10:57:50;4.97;;;4.57;;
17524;SDS011;40431;52.198;9.902;2022-12-18T11:00:24;8.50;;;7.70;;
17524;SDS011;40431;52.198;9.902;2022-12-18T11:02:53;7.73;;;7.03;;
17524;SDS011;40431;52.198;9.902;2022-12-18T11:05:25;4.77;;;4.47;;
17524;SDS011;40431;52.198;9.902;2022-12-18T11:07:53;5.80;;;5.40;;
17524;SDS011;40431;52.198;9.902;2022-12-18T11:10:23;4.90;;;4.43;;
17524;SDS011;40431;52.198;9.902;2022-12-18T11:12:52;4.83;;;4.53;;
17524;SDS011;40431;52.198;9.902;2022-12-18T11:15:19;5.53;;;5.13;;
17524;SDS011;40431;52.198;9.902;2022-12-18T11:17:48;5.50;;;5.10;;
17524;SDS011;40431;52.198;9.902;2022-12-18T11:20:20;5.57;;;5.27;;
17524;SDS011;40431;52.198;9.902;2022-12-18T11:22:56;6.73;;;6.13;;
17524;SDS011;40431;52.198;9.902;2022-12-18T11:25:25;5.50;;;4.60;;
17524;SDS011;40431;52.198;9.902;2022-12-18T11:27:53;4.03;;;3.80;;
17524;SDS011;40431;52.198;9.902;2022-12-18T11:30:23;3.30;;;3.10;;
17524;SDS011;40431;52.198;9.902;2022-12-18T11:32:52;5.17;;;4.77;;
17524;SDS011;40431;52.198;9.902;2022-12-18T11:35:23;5.47;;;5.07;;
17524;SDS011;40431;52.198;9.902;2022-12-18T11:37:59;5.50;;;5.10;;
17524;SDS011;40431;52.198;9.902;2022-12-18T11:40:33;5.13;;;4.83;;
17524;SDS011;40431;52.198;9.902;2022-12-18T11:43:04;5.17;;;4.70;;
17524;SDS011;40431;52.198;9.902;2022-12-18T11:45:38;4.77;;;4.47;;
17524;SDS011;40431;52.198;9.902;2022-12-18T11:48:11;4.37;;;3.97;;
17524;SDS011;40431;52.198;9.902;2022-12-18T11:50:47;4.03;;;3.63;;
17524;SDS011;40431;52.198;9.902;2022-12-18T11:53:16;4.90;;;4.60;;
17524;SDS011;40431;52.198;9.902;2022-12-18T11:55:49;4.73;;;4.43;;
17524;SDS011;40431;52.198;9.902;2022-12-18T11:58:26;4.60;;;4.00;;
17524;SDS011;40431;52.198;9.902;2022-12-18T12:01:03;8.53;;;7.83;;
17524;SDS011;40431;52.198;9.902;2022-12-18T12:03:44;6.23;;;5.73;;
17524;SDS011;40431;52.198;9.902;2022-12-18T12:06:24;4.60;;;4.20;;
17524;SDS011;40431;52.198;9.902;2022-12-18T12:09:02;5.67;;;5.20;;
17524;SDS011;40431;52.198;9.902;2022-12-18T12:11:41;4.43;;;4.10;;
17524;SDS011;40431;52.198;9.902;2022-12-18T12:14:24;4.80;;;4.40;;
17524;SDS011;40431;52.198;9.902;2022-12-18T12:17:04;5.10;;;4.73;;
17524;SDS011;40431;52.198;9.902;2022-12-18T12:19:43;4.80;;;4.30;;
17524;SDS011;40431;52.198;9.902;2022-12-18T12:22:20;4.30;;;4.00;;
17524;SDS011;40431;52.198;9.902;2022-12-18T12:24:58;4.00;;;3.80;;
17524;SDS011;40431;52.198;9.902;2022-12-18T12:27:47;4.97;;;4.57;;
17524;SDS011;40431;52.198;9.902;2022-12-18T12:30:27;4.97;;;4.67;;
17524;SDS011;40431;52.198;9.902;2022-12-18T12:33:05;6.20;;;4.23;;
17524;SDS011;40431;52.198;9.902;2022-12-18T12:35:51;5.10;;;4.77;;
17524;SDS011;40431;52.198;9.902;2022-12-18T12:38:28;5.50;;;5.10;;
17524;SDS011;40431;52.198;9.902;2022-12-18T12:41:03;5.17;;;4.13;;
17524;SDS011;40431;52.198;9.902;2022-12-18T12:43:58;4.53;;;4.20;;
17524;SDS011;40431;52.198;9.902;2022-12-18T12:46:29;5.97;;;5.47;;
17524;SDS011;40431;52.198;9.902;2022-12-18T12:49:03;6.80;;;6.30;;
17524;SDS011;40431;52.198;9.902;2022-12-18T12:51:37;6.73;;;6.23;;
17524;SDS011;40431;52.198;9.902;2022-12-18T12:54:11;6.67;;;6.07;;
17524;SDS011;40431;52.198;9.902;2022-12-18T12:56:47;8.33;;;6.03;;
17524;SDS011;40431;52.198;9.902;2022-12-18T12:59:30;6.30;;;5.90;;
17524;SDS011;40431;52.198;9.902;2022-12-18T13:02:06;7.63;;;7.03;;
17524;SDS011;40431;52.198;9.902;2022-12-18T13:04:45;8.27;;;7.57;;
17524;SDS011;40431;52.198;9.902;2022-12-18T13:07:22;9.10;;;8.43;;
17524;SDS011;40431;52.198;9.902;2022-12-18T13:10:14;9.50;;;8.70;;
17524;SDS011;40431;52.198;9.902;2022-12-18T13:12:54;11.00;;;9.97;;
17524;SDS011;40431;52.198;9.902;2022-12-18T13:15:24;11.10;;;10.20;;
17524;SDS011;40431;52.198;9.902;2022-12-18T13:18:06;12.77;;;11.57;;
17524;SDS011;40431;52.198;9.902;2022-12-18T13:20:42;13.00;;;12.00;;
17524;SDS011;40431;52.198;9.902;2022-12-18T13:29:07;15.43;;;14.03;;
17524;SDS011;40431;52.198;9.902;2022-12-18T13:32:01;13.97;;;12.53;;
17524;SDS011;40431;52.198;9.902;2022-12-18T13:34:49;14.83;;;13.33;;
17524;SDS011;40431;52.198;9.902;2022-12-18T13:37:44;12.97;;;11.87;;
17524;SDS011;40431;52.198;9.902;2022-12-18T13:43:31;10.90;;;10.00;;
17524;SDS011;40431;52.198;9.902;2022-12-18T13:46:05;11.37;;;10.27;;
17524;SDS011;40431;52.198;9.902;2022-12-18T13:48:51;12.13;;;11.13;;
17524;SDS011;40431;52.198;9.902;2022-12-18T13:51:23;11.50;;;10.60;;
17524;SDS011;40431;52.198;9.902;2022-12-18T13:53:54;13.40;;;12.27;;
17524;SDS011;40431;52.198;9.902;2022-12-18T13:56:25;14.13;;;12.93;;
17524;SDS011;40431;52.198;9.902;2022-12-18T13:59:05;15.17;;;13.97;;
17524;SDS011;40431;52.198;9.902;2022-12-18T14:01:42;16.80;;;15.30;;
17524;SDS011;40431;52.198;9.902;2022-12-18T14:04:16;17.07;;;15.47;;
17524;SDS011;40431;52.198;9.902;2022-12-18T14:06:49;18.03;;;16.27;;
17524;SDS011;40431;52.198;9.902;2022-12-18T14:09:22;15.57;;;14.17;;
17524;SDS011;40431;52.198;9.902;2022-12-18T14:11:53;16.33;;;14.83;;
17524;SDS011;40431;52.198;9.902;2022-12-18T14:14:43;15.67;;;14.27;;
17524;SDS011;40431;52.198;9.902;2022-12-18T14:17:13;15.87;;;14.47;;
17524;SDS011;40431;52.198;9.902;2022-12-18T14:19:46;17.77;;;16.07;;
17524;SDS011;40431;52.198;9.902;2022-12-18T14:22:15;15.17;;;13.70;;
17524;SDS011;40431;52.198;9.902;2022-12-18T14:24:44;14.13;;;12.83;;
17524;SDS011;40431;52.198;9.902;2022-12-18T14:27:21;15.60;;;14.30;;
17524;SDS011;40431;52.198;9.902;2022-12-18T14:29:49;17.57;;;16.07;;
17524;SDS011;40431;52.198;9.902;2022-12-18T14:32:17;18.60;;;16.90;;
17524;SDS011;40431;52.198;9.902;2022-12-18T14:34:47;17.33;;;15.23;;
17524;SDS011;40431;52.198;9.902;2022-12-18T14:37:15;17.13;;;15.13;;
17524;SDS011;40431;52.198;9.902;2022-12-18T14:39:55;17.73;;;16.03;;
17524;SDS011;40431;52.198;9.902;2022-12-18T14:42:23;15.63;;;14.23;;
17524;SDS011;40431;52.198;9.902;2022-12-18T14:47:53;17.47;;;14.73;;
17524;SDS011;40431;52.198;9.902;2022-12-18T14:50:21;17.17;;;15.67;;
17524;SDS011;40431;52.198;9.902;2022-12-18T14:52:48;16.73;;;15.20;;
17524;SDS011;40431;52.198;9.902;2022-12-18T14:55:15;16.10;;;14.70;;
17524;SDS011;40431;52.198;9.902;2022-12-18T14:57:43;17.60;;;16.00;;
17524;SDS011;40431;52.198;9.902;2022-12-18T15:00:14;21.07;;;18.93;;
17524;SDS011;40431;52.198;9.902;2022-12-18T15:02:43;22.60;;;19.97;;
17524;SDS011;40431;52.198;9.902;2022-12-18T15:05:16;24.73;;;21.30;;
17524;SDS011;40431;52.198;9.902;2022-12-18T15:07:47;20.93;;;18.83;;
17524;SDS011;40431;52.198;9.902;2022-12-18T15:10:15;20.90;;;18.70;;
17524;SDS011;40431;52.198;9.902;2022-12-18T15:12:44;19.00;;;17.20;;
17524;SDS011;40431;52.198;9.902;2022-12-18T15:18:16;17.87;;;16.17;;
17524;SDS011;40431;52.198;9.902;2022-12-18T15:20:46;21.93;;;17.70;;
17524;SDS011;40431;52.198;9.902;2022-12-18T15:23:18;22.27;;;16.27;;
17524;SDS011;40431;52.198;9.902;2022-12-18T15:25:46;16.23;;;14.80;;